Time;durP1;ratioP1;P1;durP2;ratioP2;P2;SDS_P1;SDS_P2;PMS_P1;PMS_P2;Temp;Humidity;BMP_temperature;BMP_pressure;BME280_temperature;BME280_humidity;BME280_pressure;Samples;Min_cycle;Max_cycle;Signal;HPM_P1;HPM_P2
2022/10/28 00:02:01;;;;;;;;;;;18.60;99.90;;;;;;5111984;28;20364;-23
2022/10/28 00:04:27;;;;;;;;;;;18.60;99.90;;;;;;5111439;28;19908;-23
2022/10/28 00:06:52;;;;;;;;;;;18.50;99.90;;;;;;5111742;28;19908;-23
2022/10/28 00:09:18;;;;;;;;;;;18.50;99.90;;;;;;5112321;28;19908;-23
2022/10/28 00:11:43;;;;;;;;;;;18.50;99.90;;;;;;5112336;28;19915;-23
2022/10/28 00:14:09;;;;;;;;;;;18.50;99.90;;;;;;5111204;28;19957;-23
2022/10/28 00:16:36;;;;;;;;;;;18.50;99.90;;;;;;5110453;28;19915;-24
2022/10/28 00:19:02;;;;;;;;;;;18.60;99.90;;;;;;5112915;28;19922;-24
2022/10/28 00:21:28;;;;;;;;;;;18.50;99.90;;;;;;5111444;28;19914;-23
2022/10/28 00:23:55;;;;;;;;;;;18.50;99.90;;;;;;5112416;28;19908;-23
2022/10/28 00:26:22;;;;;;;;;;;18.50;99.90;;;;;;5112982;28;19916;-23
2022/10/28 00:28:51;;;;;;;;;;;18.50;99.90;;;;;;5115270;28;19934;-23
2022/10/28 00:31:18;;;;;;;;;;;18.50;99.90;;;;;;5114948;28;20400;-23
2022/10/28 00:33:44;;;;;;;;;;;18.50;99.90;;;;;;5114976;28;20273;-23
2022/10/28 00:36:12;;;;;;;;;;;18.50;99.90;;;;;;5116027;28;20280;-23
2022/10/28 00:38:38;;;;;;;;;;;18.50;99.90;;;;;;5115020;28;19923;-23
2022/10/28 00:41:03;;;;;;;;;;;18.50;99.90;;;;;;5114856;28;20276;-23
2022/10/28 00:43:33;;;;;;;;;;;18.50;99.90;;;;;;5114513;28;19908;-23
2022/10/28 00:45:59;;;;;;;;;;;18.50;99.90;;;;;;5114584;28;20277;-23
2022/10/28 00:48:24;;;;;;;;;;;18.50;99.90;;;;;;5114850;27;19960;-23
2022/10/28 00:50:53;;;;;;;;;;;18.50;99.90;;;;;;5115300;28;19908;-23
2022/10/28 00:53:23;;;;;;;;;;;18.40;99.90;;;;;;5113952;28;19911;-24
2022/10/28 00:55:50;;;;;;;;;;;18.50;99.90;;;;;;5114728;28;19915;-23
2022/10/28 00:58:16;;;;;;;;;;;18.40;99.90;;;;;;5114089;28;19912;-23
2022/10/28 01:00:41;;;;;;;;;;;18.50;99.90;;;;;;5114396;28;20049;-23
2022/10/28 01:03:08;;;;;;;;;;;18.40;99.90;;;;;;5113863;28;20385;-23
2022/10/28 01:05:35;;;;;;;;;;;18.50;99.90;;;;;;5114254;28;19911;-23
2022/10/28 01:08:02;;;;;;;;;;;18.50;99.90;;;;;;5114238;28;19915;-23
2022/10/28 01:10:46;;;;;;;;;;;18.50;99.90;;;;;;5114123;28;19908;-23
2022/10/28 01:13:30;;;;;;;;;;;18.40;99.90;;;;;;5113685;28;19912;-23
2022/10/28 01:15:55;;;;;;;;;;;18.40;99.90;;;;;;5114355;28;19998;-23
2022/10/28 01:18:27;;;;;;;;;;;18.40;99.90;;;;;;5113852;28;19995;-23
2022/10/28 01:20:58;;;;;;;;;;;18.40;99.90;;;;;;5113827;28;19919;-23
2022/10/28 01:23:27;;;;;;;;;;;18.40;99.90;;;;;;5113317;28;20392;-23
2022/10/28 01:26:07;;;;;;;;;;;18.40;99.90;;;;;;5113800;28;19916;-23
2022/10/28 01:28:41;;;;;;;;;;;18.40;99.90;;;;;;5113775;28;19912;-23
2022/10/28 01:31:27;;;;;;;;;;;18.40;99.90;;;;;;5113721;28;19998;-23
2022/10/28 01:34:00;;;;;;;;;;;18.40;99.90;;;;;;5112949;28;20452;-23
2022/10/28 01:36:28;;;;;;;;;;;18.40;99.90;;;;;;5136037;22;19939;-25
2022/10/28 01:39:06;;;;;;;;;;;18.40;99.90;;;;;;5112947;28;20015;-26
2022/10/28 01:41:45;;;;;;;;;;;18.40;99.90;;;;;;5114458;28;19991;-25
2022/10/28 01:44:29;;;;;;;;;;;18.30;99.90;;;;;;5113571;28;19946;-26
2022/10/28 01:47:03;;;;;;;;;;;18.40;99.90;;;;;;5094134;28;20003;-24
2022/10/28 01:49:38;;;;;;;;;;;18.30;99.90;;;;;;5093476;28;19908;-25
2022/10/28 01:52:04;;;;;;;;;;;18.30;99.90;;;;;;5093707;28;19913;-24
2022/10/28 01:54:32;;;;;;;;;;;18.30;99.90;;;;;;5092836;28;20012;-26
2022/10/28 01:56:58;;;;;;;;;;;18.30;99.90;;;;;;5093361;28;19962;-26
2022/10/28 01:59:25;;;;;;;;;;;18.30;99.90;;;;;;5093217;28;19916;-24
2022/10/28 02:01:51;;;;;;;;;;;18.30;99.90;;;;;;5093530;28;20430;-26
2022/10/28 02:04:16;;;;;;;;;;;18.30;99.90;;;;;;5092956;28;19912;-26
2022/10/28 02:06:43;;;;;;;;;;;18.30;99.90;;;;;;5093206;28;19912;-26
2022/10/28 02:09:17;;;;;;;;;;;18.30;99.90;;;;;;5093506;28;19908;-25
2022/10/28 02:12:01;;;;;;;;;;;18.30;99.90;;;;;;5093391;28;19912;-25
2022/10/28 02:14:30;;;;;;;;;;;18.30;99.90;;;;;;5092529;28;19931;-25
2022/10/28 02:16:59;;;;;;;;;;;18.20;99.90;;;;;;5093331;28;20357;-24
2022/10/28 02:19:30;;;;;;;;;;;18.30;99.90;;;;;;5092839;28;20409;-25
2022/10/28 02:22:06;;;;;;;;;;;18.30;99.90;;;;;;5093060;28;19991;-26
2022/10/28 02:24:48;;;;;;;;;;;18.20;99.90;;;;;;5092670;28;19908;-25
2022/10/28 02:27:20;;;;;;;;;;;18.20;99.90;;;;;;5093069;28;19919;-26
2022/10/28 02:29:48;;;;;;;;;;;18.20;99.90;;;;;;5093019;28;19927;-26
2022/10/28 02:32:16;;;;;;;;;;;18.30;99.90;;;;;;5092728;28;20383;-26
2022/10/28 02:34:43;;;;;;;;;;;18.20;99.90;;;;;;5092133;28;19908;-24
2022/10/28 02:37:14;;;;;;;;;;;18.20;99.90;;;;;;5092604;28;19923;-26
2022/10/28 02:39:44;;;;;;;;;;;18.20;99.90;;;;;;5092673;28;19912;-25
2022/10/28 02:42:09;;;;;;;;;;;18.20;99.90;;;;;;5092881;28;20371;-26
2022/10/28 02:44:39;;;;;;;;;;;18.20;99.90;;;;;;5092200;28;19955;-26
2022/10/28 02:47:08;;;;;;;;;;;18.20;99.90;;;;;;5092583;28;20305;-26
2022/10/28 02:49:35;;;;;;;;;;;18.20;99.90;;;;;;5092437;28;19918;-26
2022/10/28 02:52:04;;;;;;;;;;;18.20;99.90;;;;;;5092490;28;19991;-26
2022/10/28 02:54:33;;;;;;;;;;;18.20;99.90;;;;;;5091782;28;19955;-24
2022/10/28 02:57:11;;;;;;;;;;;18.20;99.90;;;;;;5090936;28;20417;-26
2022/10/28 02:59:37;;;;;;;;;;;18.20;99.90;;;;;;5092485;28;19916;-24
2022/10/28 03:02:02;;;;;;;;;;;18.20;99.90;;;;;;5092177;28;20285;-26
2022/10/28 03:04:28;;;;;;;;;;;18.20;99.90;;;;;;5091966;28;19908;-25
2022/10/28 03:06:53;;;;;;;;;;;18.20;99.90;;;;;;5092354;28;20336;-24
2022/10/28 03:09:19;;;;;;;;;;;18.20;99.90;;;;;;5092603;28;20387;-26
2022/10/28 03:11:44;;;;;;;;;;;18.20;99.90;;;;;;5092466;28;19969;-26
2022/10/28 03:14:09;;;;;;;;;;;18.20;99.90;;;;;;5091893;28;19908;-25
2022/10/28 03:16:35;;;;;;;;;;;18.20;99.90;;;;;;5092671;28;20221;-25
2022/10/28 03:19:00;;;;;;;;;;;18.20;99.90;;;;;;5092326;28;19969;-26
2022/10/28 03:21:26;;;;;;;;;;;18.20;99.90;;;;;;5092777;28;20392;-25
2022/10/28 03:23:51;;;;;;;;;;;18.20;99.90;;;;;;5092004;28;19913;-26
2022/10/28 03:26:17;;;;;;;;;;;18.20;99.90;;;;;;5092568;28;19908;-26
2022/10/28 03:28:42;;;;;;;;;;;18.20;99.90;;;;;;5092068;28;19914;-25
2022/10/28 03:31:08;;;;;;;;;;;18.20;99.90;;;;;;5092450;28;19908;-26
2022/10/28 03:33:33;;;;;;;;;;;18.20;99.90;;;;;;5091531;28;19912;-26
2022/10/28 03:35:59;;;;;;;;;;;18.20;99.90;;;;;;5092233;28;20364;-25
2022/10/28 03:38:24;;;;;;;;;;;18.10;99.90;;;;;;5092038;28;19916;-24
2022/10/28 03:40:50;;;;;;;;;;;18.20;99.90;;;;;;5092399;28;19908;-25
2022/10/28 03:43:16;;;;;;;;;;;18.20;99.90;;;;;;5091948;28;19975;-27
2022/10/28 03:45:42;;;;;;;;;;;18.20;99.90;;;;;;5092322;28;19908;-25
2022/10/28 03:48:07;;;;;;;;;;;18.20;99.90;;;;;;5091984;28;19912;-25
2022/10/28 03:50:33;;;;;;;;;;;18.20;99.90;;;;;;5092312;28;19934;-26
2022/10/28 03:52:59;;;;;;;;;;;18.20;99.90;;;;;;5091774;28;20418;-24
2022/10/28 03:55:24;;;;;;;;;;;18.10;99.90;;;;;;5092298;28;20231;-26
2022/10/28 03:57:50;;;;;;;;;;;18.20;99.90;;;;;;5092293;28;19908;-25
2022/10/28 04:00:16;;;;;;;;;;;18.20;99.90;;;;;;5092032;28;19916;-25
2022/10/28 04:02:42;;;;;;;;;;;18.10;99.90;;;;;;5094138;28;19912;-26
2022/10/28 04:05:08;;;;;;;;;;;18.20;99.90;;;;;;5095610;28;19916;-25
2022/10/28 04:07:34;;;;;;;;;;;18.20;99.90;;;;;;5095696;28;19912;-26
2022/10/28 04:09:59;;;;;;;;;;;18.20;99.90;;;;;;5095398;28;20402;-25
2022/10/28 04:12:25;;;;;;;;;;;18.20;99.90;;;;;;5095383;28;20411;-25
2022/10/28 04:14:50;;;;;;;;;;;18.20;99.90;;;;;;5095097;28;20296;-25
2022/10/28 04:17:16;;;;;;;;;;;18.20;99.90;;;;;;5095170;28;19915;-24
2022/10/28 04:19:41;;;;;;;;;;;18.20;99.90;;;;;;5095381;28;19966;-26
2022/10/28 04:22:08;;;;;;;;;;;18.20;99.90;;;;;;5095301;28;20014;-25
2022/10/28 04:24:34;;;;;;;;;;;18.20;99.90;;;;;;5094821;28;19915;-25
2022/10/28 04:26:59;;;;;;;;;;;18.10;99.90;;;;;;5095315;28;19912;-24
2022/10/28 04:29:25;;;;;;;;;;;18.20;99.90;;;;;;5095466;28;19946;-25
2022/10/28 04:31:50;;;;;;;;;;;18.20;99.90;;;;;;5095022;28;20011;-25
2022/10/28 04:34:16;;;;;;;;;;;18.20;99.90;;;;;;5094742;28;20436;-26
2022/10/28 04:36:41;;;;;;;;;;;18.20;99.90;;;;;;5094973;28;20348;-25
2022/10/28 04:39:08;;;;;;;;;;;18.20;99.90;;;;;;5094883;28;19920;-24
2022/10/28 04:41:34;;;;;;;;;;;18.20;99.90;;;;;;5095070;28;20365;-25
2022/10/28 04:43:59;;;;;;;;;;;18.20;99.90;;;;;;5094419;28;19919;-25
2022/10/28 04:46:25;;;;;;;;;;;18.20;99.90;;;;;;5094802;28;19919;-25
2022/10/28 04:48:50;;;;;;;;;;;18.20;99.90;;;;;;5094743;28;19904;-26
2022/10/28 04:51:16;;;;;;;;;;;18.20;99.90;;;;;;5095021;28;20056;-24
2022/10/28 04:53:41;;;;;;;;;;;18.20;99.90;;;;;;5094211;28;19919;-25
2022/10/28 04:56:07;;;;;;;;;;;18.10;99.90;;;;;;5094616;28;19953;-25
2022/10/28 04:58:32;;;;;;;;;;;18.20;99.90;;;;;;5094382;28;20410;-25
2022/10/28 05:00:58;;;;;;;;;;;18.20;99.90;;;;;;5094443;28;19922;-25
2022/10/28 05:03:23;;;;;;;;;;;18.20;99.90;;;;;;5094065;28;19915;-25
2022/10/28 05:05:49;;;;;;;;;;;18.20;99.90;;;;;;5094347;28;19912;-25
2022/10/28 05:08:14;;;;;;;;;;;18.20;99.90;;;;;;5094628;28;20038;-24
2022/10/28 05:10:40;;;;;;;;;;;18.20;99.90;;;;;;5094467;28;19934;-25
2022/10/28 05:13:05;;;;;;;;;;;18.20;99.90;;;;;;5093945;28;19912;-27
2022/10/28 05:15:31;;;;;;;;;;;18.10;99.90;;;;;;5094076;28;20280;-26
2022/10/28 05:17:56;;;;;;;;;;;18.20;99.90;;;;;;5094288;28;19912;-25
2022/10/28 05:20:22;;;;;;;;;;;18.10;99.90;;;;;;5094208;28;19912;-25
2022/10/28 05:22:49;;;;;;;;;;;18.20;99.90;;;;;;5093838;28;19912;-25
2022/10/28 05:25:15;;;;;;;;;;;18.10;99.90;;;;;;5093968;28;19909;-26
2022/10/28 05:27:40;;;;;;;;;;;18.10;99.90;;;;;;5094039;28;19920;-25
2022/10/28 05:30:06;;;;;;;;;;;18.10;99.90;;;;;;5094232;28;19908;-25
2022/10/28 05:32:32;;;;;;;;;;;18.10;99.90;;;;;;5093618;28;19950;-26
2022/10/28 05:34:57;;;;;;;;;;;18.20;99.90;;;;;;5093831;28;19959;-25
2022/10/28 05:37:23;;;;;;;;;;;18.10;99.90;;;;;;5093780;28;19980;-26
2022/10/28 05:39:48;;;;;;;;;;;18.10;99.90;;;;;;5093890;28;20015;-25
2022/10/28 05:42:14;;;;;;;;;;;18.10;99.90;;;;;;5093871;28;20296;-25
2022/10/28 05:44:39;;;;;;;;;;;18.10;99.90;;;;;;5092769;28;19908;-24
2022/10/28 05:47:05;;;;;;;;;;;18.10;99.90;;;;;;5093691;28;19908;-25
2022/10/28 05:49:30;;;;;;;;;;;18.10;99.90;;;;;;5093495;28;19919;-25
2022/10/28 05:51:56;;;;;;;;;;;18.10;99.90;;;;;;5093690;28;19916;-26
2022/10/28 05:54:21;;;;;;;;;;;18.10;99.90;;;;;;5093107;28;19912;-26
2022/10/28 05:56:47;;;;;;;;;;;18.10;99.90;;;;;;5093564;28;19937;-25
2022/10/28 05:59:12;;;;;;;;;;;18.10;99.90;;;;;;5093224;28;19912;-25
2022/10/28 06:01:38;;;;;;;;;;;18.10;99.90;;;;;;5093578;28;19974;-25
2022/10/28 06:04:03;;;;;;;;;;;18.10;99.90;;;;;;5093110;28;19908;-25
2022/10/28 06:06:29;;;;;;;;;;;18.10;99.90;;;;;;5093364;28;20393;-25
2022/10/28 06:08:55;;;;;;;;;;;18.10;99.90;;;;;;5093251;28;20415;-25
2022/10/28 06:11:20;;;;;;;;;;;18.10;99.90;;;;;;5093118;28;19924;-25
2022/10/28 06:13:46;;;;;;;;;;;18.10;99.90;;;;;;5092641;28;19958;-25
2022/10/28 06:16:11;;;;;;;;;;;18.10;99.90;;;;;;5093068;28;19944;-25
2022/10/28 06:18:37;;;;;;;;;;;18.10;99.90;;;;;;5093067;28;20320;-25
2022/10/28 06:21:02;;;;;;;;;;;18.10;99.90;;;;;;5091608;28;19912;-25
2022/10/28 06:23:28;;;;;;;;;;;18.10;99.90;;;;;;5092640;28;19908;-26
2022/10/28 06:25:57;;;;;;;;;;;18.00;99.90;;;;;;5092237;28;19955;-25
2022/10/28 06:28:22;;;;;;;;;;;18.10;99.90;;;;;;5092864;28;19912;-26
2022/10/28 06:30:48;;;;;;;;;;;18.10;99.90;;;;;;5092831;28;19908;-25
2022/10/28 06:33:13;;;;;;;;;;;18.00;99.90;;;;;;5092455;28;20046;-26
2022/10/28 06:35:39;;;;;;;;;;;18.10;99.90;;;;;;5092662;28;20301;-26
2022/10/28 06:38:04;;;;;;;;;;;18.00;99.90;;;;;;5092500;28;19915;-24
2022/10/28 06:40:30;;;;;;;;;;;18.00;99.90;;;;;;5092805;28;19961;-25
2022/10/28 06:42:57;;;;;;;;;;;18.00;99.90;;;;;;5092494;28;19981;-25
2022/10/28 06:45:23;;;;;;;;;;;18.00;99.90;;;;;;5092639;28;19957;-25
2022/10/28 06:47:48;;;;;;;;;;;18.10;99.90;;;;;;5092501;28;19908;-25
2022/10/28 06:50:14;;;;;;;;;;;18.00;99.90;;;;;;5092625;28;19908;-24
2022/10/28 06:52:39;;;;;;;;;;;18.10;99.90;;;;;;5092098;28;19999;-26
2022/10/28 06:55:05;;;;;;;;;;;18.00;99.90;;;;;;5092314;28;19930;-25
2022/10/28 06:57:30;;;;;;;;;;;18.00;99.90;;;;;;5092398;28;19919;-25
2022/10/28 06:59:56;;;;;;;;;;;18.00;99.90;;;;;;5092233;28;20367;-25
2022/10/28 07:02:21;;;;;;;;;;;18.00;99.90;;;;;;5092324;28;19908;-24
2022/10/28 07:04:47;;;;;;;;;;;18.00;99.90;;;;;;5092271;28;20449;-26
2022/10/28 07:07:12;;;;;;;;;;;18.00;99.90;;;;;;5092282;28;19908;-26
2022/10/28 07:09:38;;;;;;;;;;;18.00;99.90;;;;;;5092293;28;20395;-25
2022/10/28 07:12:05;;;;;;;;;;;18.00;99.90;;;;;;5092161;28;20042;-27
2022/10/28 07:14:30;;;;;;;;;;;18.00;99.90;;;;;;5091857;28;19943;-25
2022/10/28 07:16:56;;;;;;;;;;;18.00;99.90;;;;;;5092048;28;19948;-25
2022/10/28 07:19:21;;;;;;;;;;;18.00;99.90;;;;;;5092091;28;19975;-24
2022/10/28 07:21:47;;;;;;;;;;;18.00;99.90;;;;;;5092269;28;20373;-26
2022/10/28 07:24:12;;;;;;;;;;;18.00;99.90;;;;;;5091786;28;19954;-26
2022/10/28 07:26:38;;;;;;;;;;;17.90;99.90;;;;;;5092199;28;19916;-26
2022/10/28 07:29:03;;;;;;;;;;;18.00;99.90;;;;;;5092239;28;19944;-25
2022/10/28 07:31:30;;;;;;;;;;;18.00;99.90;;;;;;5091889;28;20399;-25
2022/10/28 07:33:55;;;;;;;;;;;18.00;99.90;;;;;;5091708;28;19923;-25
2022/10/28 07:36:21;;;;;;;;;;;18.00;99.90;;;;;;5093129;28;19920;-26
2022/10/28 07:38:53;;;;;;;;;;;18.00;99.90;;;;;;5096057;28;19957;-25
2022/10/28 07:41:20;;;;;;;;;;;18.00;99.90;;;;;;5095851;28;19961;-25
2022/10/28 07:43:45;;;;;;;;;;;18.00;99.90;;;;;;5095736;28;19912;-26
2022/10/28 07:46:11;;;;;;;;;;;18.00;99.90;;;;;;5095747;28;20270;-25
2022/10/28 07:48:37;;;;;;;;;;;17.90;99.90;;;;;;5096130;28;19915;-25
2022/10/28 07:51:03;;;;;;;;;;;17.90;99.90;;;;;;5096277;28;19908;-25
2022/10/28 07:53:29;;;;;;;;;;;17.90;99.90;;;;;;5095631;28;19999;-25
2022/10/28 07:55:56;;;;;;;;;;;17.90;99.90;;;;;;5095955;28;19984;-26
2022/10/28 07:58:21;;;;;;;;;;;17.90;99.90;;;;;;5095746;28;19916;-25
2022/10/28 08:00:47;;;;;;;;;;;17.90;99.90;;;;;;5096056;28;19914;-25
2022/10/28 08:03:13;;;;;;;;;;;17.90;99.90;;;;;;5095314;28;20019;-25
2022/10/28 08:05:38;;;;;;;;;;;18.00;99.90;;;;;;5095710;28;19908;-25
2022/10/28 08:08:04;;;;;;;;;;;17.90;99.90;;;;;;5095343;28;19912;-26
2022/10/28 08:10:29;;;;;;;;;;;17.90;99.90;;;;;;5095268;28;19951;-24
2022/10/28 08:12:56;;;;;;;;;;;17.90;99.90;;;;;;5095104;28;19908;-25
2022/10/28 08:15:22;;;;;;;;;;;17.90;99.90;;;;;;5095682;28;19908;-26
2022/10/28 08:17:51;;;;;;;;;;;17.90;99.90;;;;;;5095516;28;19934;-25
2022/10/28 08:20:17;;;;;;;;;;;18.00;99.90;;;;;;5095469;28;19916;-24
2022/10/28 08:22:42;;;;;;;;;;;17.90;99.90;;;;;;5095013;28;19957;-24
2022/10/28 08:25:08;;;;;;;;;;;17.90;99.90;;;;;;5095260;28;19938;-25
2022/10/28 08:27:34;;;;;;;;;;;17.90;99.90;;;;;;5095277;28;19961;-26
2022/10/28 08:29:59;;;;;;;;;;;17.90;99.90;;;;;;5095252;28;20553;-25
2022/10/28 08:32:25;;;;;;;;;;;17.90;99.90;;;;;;5094775;28;19962;-25
2022/10/28 08:34:50;;;;;;;;;;;17.90;99.90;;;;;;5095008;28;19919;-26
2022/10/28 08:37:16;;;;;;;;;;;17.90;99.90;;;;;;5095187;28;19912;-25
2022/10/28 08:39:41;;;;;;;;;;;17.90;99.90;;;;;;5095000;28;19954;-25
2022/10/28 08:42:30;;;;;;;;;;;17.90;99.90;;;;;;5095012;28;20342;-26
2022/10/28 08:45:02;;;;;;;;;;;17.90;99.90;;;;;;5094784;28;19955;-25
2022/10/28 08:47:31;;;;;;;;;;;17.90;99.90;;;;;;5094673;28;19908;-25
2022/10/28 08:50:02;;;;;;;;;;;17.90;99.90;;;;;;5093518;28;20007;-25
2022/10/28 08:52:33;;;;;;;;;;;18.00;99.90;;;;;;5094555;28;19912;-25
2022/10/28 08:55:21;;;;;;;;;;;18.00;99.90;;;;;;5094316;28;19912;-25
2022/10/28 08:57:56;;;;;;;;;;;18.00;99.90;;;;;;5089100;28;19940;-25
2022/10/28 09:00:21;;;;;;;;;;;18.00;99.90;;;;;;5094210;28;19923;-25
2022/10/28 09:02:54;;;;;;;;;;;18.00;99.90;;;;;;5094151;28;20154;-24
2022/10/28 09:05:21;;;;;;;;;;;18.00;99.90;;;;;;5094383;28;20014;-25
2022/10/28 09:07:46;;;;;;;;;;;18.00;99.90;;;;;;5094713;28;20384;-25
2022/10/28 09:10:16;;;;;;;;;;;18.00;99.90;;;;;;5094578;28;19912;-25
2022/10/28 09:12:45;;;;;;;;;;;18.00;99.90;;;;;;5093872;28;19956;-25
2022/10/28 09:15:22;;;;;;;;;;;18.00;99.90;;;;;;5093939;28;20265;-25
2022/10/28 09:17:52;;;;;;;;;;;18.00;99.90;;;;;;5094133;28;19993;-26
2022/10/28 09:20:24;;;;;;;;;;;18.00;99.90;;;;;;5094104;28;20046;-25
2022/10/28 09:22:49;;;;;;;;;;;18.00;99.90;;;;;;5093800;28;19908;-25
2022/10/28 09:25:27;;;;;;;;;;;18.00;99.90;;;;;;5093992;28;19912;-25
2022/10/28 09:28:14;;;;;;;;;;;18.00;99.90;;;;;;5093895;28;19908;-25
2022/10/28 09:30:45;;;;;;;;;;;18.00;99.90;;;;;;5094391;28;19935;-24
2022/10/28 09:33:20;;;;;;;;;;;18.00;99.90;;;;;;5093642;28;20357;-25
2022/10/28 09:35:46;;;;;;;;;;;17.90;99.90;;;;;;5093938;28;19920;-24
2022/10/28 09:38:15;;;;;;;;;;;18.00;99.90;;;;;;5093653;28;19938;-25
2022/10/28 09:40:43;;;;;;;;;;;18.00;99.90;;;;;;5093791;28;19915;-26
2022/10/28 09:43:19;;;;;;;;;;;18.00;99.90;;;;;;5093516;28;19912;-26
2022/10/28 09:45:45;;;;;;;;;;;18.00;99.90;;;;;;5093954;28;19908;-26
2022/10/28 09:48:14;;;;;;;;;;;18.10;99.90;;;;;;5093809;28;19912;-26
2022/10/28 09:50:40;;;;;;;;;;;18.10;99.90;;;;;;5093830;28;19919;-26
2022/10/28 09:53:08;;;;;;;;;;;18.10;99.90;;;;;;5093304;28;19912;-25
2022/10/28 09:55:34;;;;;;;;;;;18.10;99.90;;;;;;5093307;28;19954;-25
2022/10/28 09:58:01;;;;;;;;;;;18.10;99.90;;;;;;5093292;28;19912;-26
2022/10/28 10:00:26;;;;;;;;;;;18.10;99.90;;;;;;5092652;28;19958;-25
2022/10/28 10:02:56;;;;;;;;;;;18.10;99.90;;;;;;5092906;28;19947;-25
2022/10/28 10:05:22;;;;;;;;;;;18.10;99.90;;;;;;5093367;28;20323;-25
2022/10/28 10:07:58;;;;;;;;;;;18.20;99.90;;;;;;5093153;28;19909;-26
2022/10/28 10:10:43;;;;;;;;;;;18.10;99.90;;;;;;5093444;28;20293;-25
2022/10/28 10:13:10;;;;;;;;;;;18.20;99.90;;;;;;5085002;28;19912;-26
2022/10/28 10:15:38;;;;;;;;;;;18.20;99.90;;;;;;5092960;28;19912;-26
2022/10/28 10:18:04;;;;;;;;;;;18.20;99.90;;;;;;5093304;28;19908;-25
2022/10/28 10:20:47;;;;;;;;;;;18.20;99.90;;;;;;5093190;28;19913;-25
2022/10/28 10:23:27;;;;;;;;;;;18.20;99.90;;;;;;5092513;28;20003;-25
2022/10/28 10:25:54;;;;;;;;;;;18.20;99.90;;;;;;5093047;28;19908;-25
2022/10/28 10:28:20;;;;;;;;;;;18.20;99.90;;;;;;5092887;28;19919;-25
2022/10/28 10:30:50;;;;;;;;;;;18.20;99.90;;;;;;5092856;28;19926;-24
2022/10/28 10:33:20;;;;;;;;;;;18.20;99.90;;;;;;5092051;28;20377;-25
2022/10/28 10:35:57;;;;;;;;;;;18.20;99.90;;;;;;5092577;28;19965;-24
2022/10/28 10:38:22;;;;;;;;;;;18.20;99.90;;;;;;5092773;28;19908;-26
2022/10/28 10:40:49;;;;;;;;;;;18.20;99.90;;;;;;5092727;28;19930;-26
2022/10/28 10:43:17;;;;;;;;;;;18.20;99.90;;;;;;5092161;28;19908;-26
2022/10/28 10:46:09;;;;;;;;;;;18.20;99.90;;;;;;5092515;28;19908;-26
2022/10/28 10:48:35;;;;;;;;;;;18.10;99.90;;;;;;5090284;28;19943;-25
2022/10/28 10:51:06;;;;;;;;;;;18.10;99.90;;;;;;5092345;28;19996;-25
2022/10/28 10:53:32;;;;;;;;;;;18.10;99.90;;;;;;5092470;28;20228;-26
2022/10/28 10:56:00;;;;;;;;;;;18.10;99.90;;;;;;5092607;28;19955;-24
2022/10/28 10:58:33;;;;;;;;;;;18.10;99.90;;;;;;5092195;28;19908;-26
2022/10/28 11:01:00;;;;;;;;;;;18.20;99.90;;;;;;5092564;28;19908;-24
2022/10/28 11:03:35;;;;;;;;;;;18.20;99.90;;;;;;5092163;28;19977;-26
2022/10/28 11:06:02;;;;;;;;;;;18.20;99.90;;;;;;5092529;28;19908;-25
2022/10/28 11:08:32;;;;;;;;;;;18.30;99.90;;;;;;5092512;28;19944;-27
2022/10/28 11:11:04;;;;;;;;;;;18.40;99.90;;;;;;5092531;28;19918;-25
2022/10/28 11:13:30;;;;;;;;;;;18.40;99.90;;;;;;5092097;28;19908;-26
2022/10/28 11:16:03;;;;;;;;;;;18.40;99.90;;;;;;5092339;28;19982;-25
2022/10/28 11:18:38;;;;;;;;;;;18.40;99.90;;;;;;5092501;28;19918;-26
2022/10/28 11:21:03;;;;;;;;;;;18.40;99.90;;;;;;5092751;28;20312;-25
2022/10/28 11:23:35;;;;;;;;;;;18.40;99.90;;;;;;5092171;28;19962;-25
2022/10/28 11:26:03;;;;;;;;;;;18.40;99.90;;;;;;5092331;28;19908;-26
2022/10/28 11:28:45;;;;;;;;;;;18.40;99.90;;;;;;5092845;28;20410;-25
2022/10/28 11:31:29;;;;;;;;;;;18.30;99.90;;;;;;5092735;28;20342;-26
2022/10/28 11:34:09;;;;;;;;;;;18.30;99.90;;;;;;5091909;28;19912;-25
2022/10/28 11:36:53;;;;;;;;;;;18.40;99.90;;;;;;5092308;28;20282;-25
2022/10/28 11:39:21;;;;;;;;;;;18.30;99.90;;;;;;5092198;28;19986;-26
2022/10/28 11:41:59;;;;;;;;;;;18.30;99.90;;;;;;5092347;28;19915;-26
2022/10/28 11:44:43;;;;;;;;;;;18.30;99.90;;;;;;5091781;28;20257;-25
2022/10/28 11:47:28;;;;;;;;;;;18.40;99.90;;;;;;5091994;28;20321;-26
2022/10/28 11:50:11;;;;;;;;;;;18.40;99.90;;;;;;5092430;28;19916;-25
2022/10/28 11:52:55;;;;;;;;;;;18.40;99.90;;;;;;5091873;28;19909;-26
2022/10/28 11:55:27;;;;;;;;;;;18.40;99.90;;;;;;5091579;28;19919;-24
2022/10/28 11:58:03;;;;;;;;;;;18.40;99.90;;;;;;5091932;28;19908;-25
2022/10/28 12:00:44;;;;;;;;;;;18.40;99.90;;;;;;5092297;28;20410;-25
2022/10/28 12:03:28;;;;;;;;;;;18.40;99.90;;;;;;5091705;28;19969;-25
2022/10/28 12:05:53;;;;;;;;;;;18.40;99.90;;;;;;5091487;28;20048;-27
2022/10/28 12:08:37;;;;;;;;;;;18.40;99.90;;;;;;5091314;28;20413;-25
2022/10/28 12:11:09;;;;;;;;;;;18.30;99.90;;;;;;5091546;28;20186;-26
2022/10/28 12:13:53;;;;;;;;;;;18.30;99.90;;;;;;5091013;28;19912;-25
2022/10/28 12:16:37;;;;;;;;;;;18.40;99.90;;;;;;5091301;28;19908;-25
2022/10/28 12:19:07;;;;;;;;;;;18.40;99.90;;;;;;5090654;28;19912;-24
2022/10/28 12:21:35;;;;;;;;;;;18.40;99.90;;;;;;5091782;28;19908;-25
2022/10/28 12:24:03;;;;;;;;;;;18.50;99.90;;;;;;5094364;28;19951;-25
2022/10/28 12:26:40;;;;;;;;;;;18.50;99.90;;;;;;5095339;28;19908;-24
2022/10/28 12:29:13;;;;;;;;;;;18.60;99.90;;;;;;5095392;28;20003;-25
2022/10/28 12:31:47;;;;;;;;;;;18.60;99.90;;;;;;5095604;28;19914;-25
2022/10/28 12:34:14;;;;;;;;;;;18.60;99.90;;;;;;5094398;28;20323;-26
2022/10/28 12:36:51;;;;;;;;;;;18.80;99.90;;;;;;5094384;28;19982;-26
2022/10/28 12:39:35;;;;;;;;;;;19.00;99.90;;;;;;5094295;28;19947;-25
2022/10/28 12:42:10;;;;;;;;;;;19.10;99.90;;;;;;5094297;28;19982;-26
2022/10/28 12:44:36;;;;;;;;;;;19.20;99.90;;;;;;5093859;28;19938;-26
2022/10/28 12:47:14;;;;;;;;;;;19.20;99.90;;;;;;5094262;28;19948;-26
2022/10/28 12:49:55;;;;;;;;;;;19.20;99.90;;;;;;5093969;28;19909;-27
2022/10/28 12:52:25;;;;;;;;;;;19.20;99.90;;;;;;5094058;28;19955;-25
2022/10/28 12:54:51;;;;;;;;;;;19.20;99.90;;;;;;5094079;28;19934;-26
2022/10/28 12:57:19;;;;;;;;;;;19.20;99.90;;;;;;5094110;28;19912;-25
2022/10/28 12:59:47;;;;;;;;;;;19.20;99.90;;;;;;5094192;28;19959;-26
2022/10/28 13:02:16;;;;;;;;;;;19.20;99.90;;;;;;5093999;28;19914;-26
2022/10/28 13:04:41;;;;;;;;;;;19.20;99.90;;;;;;5093666;28;20224;-27
2022/10/28 13:07:16;;;;;;;;;;;19.20;99.90;;;;;;5094179;28;19908;-25
2022/10/28 13:09:56;;;;;;;;;;;19.20;99.90;;;;;;5094144;28;20280;-27
2022/10/28 13:12:40;;;;;;;;;;;19.20;99.90;;;;;;5093530;28;20280;-25
2022/10/28 13:15:09;;;;;;;;;;;19.20;99.90;;;;;;5093618;28;19912;-25
2022/10/28 13:17:53;;;;;;;;;;;19.20;99.90;;;;;;5093669;28;19912;-26
2022/10/28 13:20:24;;;;;;;;;;;19.20;99.90;;;;;;5093562;28;19920;-25
2022/10/28 13:23:01;;;;;;;;;;;19.20;99.90;;;;;;5093184;28;19918;-25
2022/10/28 13:25:39;;;;;;;;;;;19.20;99.90;;;;;;5093466;28;19912;-26
2022/10/28 13:28:10;;;;;;;;;;;19.20;99.90;;;;;;5093541;28;20381;-25
2022/10/28 13:30:35;;;;;;;;;;;19.10;99.90;;;;;;5093647;28;20041;-25
2022/10/28 13:33:05;;;;;;;;;;;19.10;99.90;;;;;;5093061;28;19943;-26
2022/10/28 13:35:31;;;;;;;;;;;19.10;99.90;;;;;;5092455;28;19916;-25
2022/10/28 13:37:58;;;;;;;;;;;19.10;99.90;;;;;;5093210;28;19915;-24
2022/10/28 13:40:29;;;;;;;;;;;19.10;99.90;;;;;;5087959;28;19916;-24
2022/10/28 13:42:55;;;;;;;;;;;19.40;99.90;;;;;;5072587;28;20186;-25
2022/10/28 13:45:39;;;;;;;;;;;19.70;99.90;;;;;;5072065;28;19921;-25
2022/10/28 13:48:23;;;;;;;;;;;19.80;99.90;;;;;;5072481;28;20281;-24
2022/10/28 13:50:49;;;;;;;;;;;19.80;99.90;;;;;;5072720;28;19908;-25
2022/10/28 13:53:23;;;;;;;;;;;19.90;99.90;;;;;;5072264;28;19915;-24
2022/10/28 13:55:55;;;;;;;;;;;19.90;99.90;;;;;;5072606;28;20007;-24
2022/10/28 13:58:24;;;;;;;;;;;19.80;99.90;;;;;;5072259;28;19954;-25
2022/10/28 14:00:50;;;;;;;;;;;19.80;99.90;;;;;;5072446;28;19912;-25
2022/10/28 14:03:17;;;;;;;;;;;19.80;99.90;;;;;;5072123;28;19915;-25
2022/10/28 14:05:43;;;;;;;;;;;19.80;99.90;;;;;;5072438;28;19948;-25
2022/10/28 14:08:28;;;;;;;;;;;19.80;99.90;;;;;;5072432;28;19978;-26
2022/10/28 14:11:03;;;;;;;;;;;19.80;99.90;;;;;;5072388;28;19909;-26
2022/10/28 14:13:30;;;;;;;;;;;19.70;99.90;;;;;;5071916;28;19920;-25
2022/10/28 14:16:14;;;;;;;;;;;19.70;99.90;;;;;;5072313;28;19912;-24
2022/10/28 14:18:40;;;;;;;;;;;19.70;99.90;;;;;;5072246;28;19978;-25
2022/10/28 14:21:05;;;;;;;;;;;19.70;99.90;;;;;;5072182;28;19951;-25
2022/10/28 14:23:31;;;;;;;;;;;19.70;99.90;;;;;;5071402;28;19909;-25
2022/10/28 14:25:58;;;;;;;;;;;19.60;99.90;;;;;;5070780;28;19912;-25
2022/10/28 14:28:44;;;;;;;;;;;19.60;99.90;;;;;;5070884;28;20064;-24